createdAt,value
2022-12-27T00:00:07.486Z,76.50
2022-12-27T00:02:35.911Z,76.50
2022-12-27T00:05:02.571Z,76.40
2022-12-27T00:07:31.531Z,76.40
2022-12-27T00:09:59.160Z,76.40
2022-12-27T00:12:25.801Z,76.80
2022-12-27T00:14:52.355Z,76.30
2022-12-27T00:17:19.094Z,76.50
2022-12-27T00:19:45.707Z,77.20
2022-12-27T00:22:12.329Z,76.40
2022-12-27T00:24:41.295Z,76.30
2022-12-27T00:27:08.151Z,76.30
2022-12-27T00:29:34.738Z,76.30
2022-12-27T00:32:01.411Z,76.00
2022-12-27T00:34:28.070Z,75.90
2022-12-27T00:36:54.660Z,75.40
2022-12-27T00:39:21.237Z,75.20
2022-12-27T00:41:48.067Z,75.90
2022-12-27T00:44:14.929Z,75.40
2022-12-27T00:46:41.523Z,76.00
2022-12-27T00:49:10.619Z,75.60
2022-12-27T00:51:39.552Z,75.90
2022-12-27T00:54:07.610Z,76.40
2022-12-27T00:56:34.350Z,76.40
2022-12-27T00:59:02.023Z,76.10
2022-12-27T01:01:30.485Z,76.30
2022-12-27T01:03:57.898Z,76.70
2022-12-27T01:06:26.489Z,76.40
2022-12-27T01:08:53.070Z,76.50
2022-12-27T01:11:19.670Z,76.50
2022-12-27T01:13:46.252Z,77.20
2022-12-27T01:16:20.343Z,76.70
2022-12-27T01:18:49.922Z,76.60
2022-12-27T01:21:17.569Z,76.80
2022-12-27T01:23:44.176Z,77.20
2022-12-27T01:26:12.486Z,77.20
2022-12-27T01:28:41.903Z,77.10
2022-12-27T01:31:10.302Z,77.20
2022-12-27T01:33:37.167Z,77.20
2022-12-27T01:36:17.829Z,77.30
2022-12-27T01:38:48.119Z,77.20
2022-12-27T01:41:43.267Z,77.30
2022-12-27T01:44:28.945Z,77.10
2022-12-27T01:46:55.554Z,77.20
2022-12-27T01:49:22.149Z,77.20
2022-12-27T01:51:48.806Z,77.40
2022-12-27T01:54:15.384Z,77.30
2022-12-27T01:56:42.043Z,77.20
2022-12-27T01:59:09.126Z,77.30
2022-12-27T02:01:42.130Z,77.30
2022-12-27T02:04:10.528Z,77.30
2022-12-27T02:06:38.478Z,77.20
2022-12-27T02:09:14.222Z,77.40
2022-12-27T02:11:51.159Z,77.40
2022-12-27T02:14:36.073Z,77.40
2022-12-27T02:17:06.600Z,77.40
2022-12-27T02:19:36.373Z,77.30
2022-12-27T02:22:18.132Z,77.40
2022-12-27T02:24:44.763Z,77.40
2022-12-27T02:27:26.667Z,77.40
2022-12-27T02:30:07.902Z,77.40
2022-12-27T02:32:54.707Z,77.40
2022-12-27T02:35:21.341Z,77.30
2022-12-27T02:37:50.606Z,77.40
2022-12-27T02:40:37.498Z,77.40
2022-12-27T02:43:23.438Z,77.40
2022-12-27T02:46:21.231Z,77.40
2022-12-27T02:49:10.349Z,77.30
2022-12-27T02:52:02.259Z,77.30
2022-12-27T02:54:29.180Z,77.40
2022-12-27T02:57:13.769Z,77.30
2022-12-27T03:00:17.900Z,77.40
2022-12-27T03:03:09.340Z,77.40
2022-12-27T03:05:44.862Z,77.40
2022-12-27T03:08:18.606Z,77.40
2022-12-27T03:11:33.917Z,77.40
2022-12-27T03:14:35.705Z,77.40
2022-12-27T03:17:05.039Z,77.40
2022-12-27T03:20:02.422Z,77.40
2022-12-27T03:22:48.244Z,77.40
2022-12-27T03:25:31.030Z,77.40
2022-12-27T03:28:31.410Z,77.40
2022-12-27T03:31:19.399Z,77.40
2022-12-27T03:33:47.561Z,77.40
2022-12-27T03:36:37.784Z,77.40
2022-12-27T03:39:12.945Z,77.40
2022-12-27T03:42:00.870Z,77.40
2022-12-27T03:44:27.710Z,77.40
2022-12-27T03:46:58.580Z,77.40
2022-12-27T03:49:25.150Z,77.40
2022-12-27T03:51:54.106Z,77.40
2022-12-27T03:54:26.325Z,77.40
2022-12-27T03:57:00.717Z,77.40
2022-12-27T03:59:28.018Z,77.40
2022-12-27T04:01:55.020Z,77.40
2022-12-27T04:04:21.683Z,77.40
2022-12-27T04:06:48.392Z,77.40
2022-12-27T04:09:34.117Z,77.40
2022-12-27T04:12:19.400Z,77.40
2022-12-27T04:15:04.833Z,77.40
2022-12-27T04:17:49.971Z,77.40
2022-12-27T04:20:35.294Z,77.40
2022-12-27T04:23:20.679Z,77.40
2022-12-27T04:26:06.257Z,77.40
2022-12-27T04:28:51.569Z,77.40
2022-12-27T04:31:36.795Z,77.40
2022-12-27T04:34:21.786Z,77.40
2022-12-27T04:36:48.802Z,77.40
2022-12-27T04:39:17.974Z,77.40
2022-12-27T04:42:03.572Z,77.40
2022-12-27T04:44:48.919Z,77.40
2022-12-27T04:47:35.380Z,77.40
2022-12-27T04:50:23.399Z,77.40
2022-12-27T04:53:08.343Z,77.40
2022-12-27T04:55:34.921Z,77.40
2022-12-27T04:58:01.556Z,77.40
2022-12-27T05:00:48.593Z,77.40
2022-12-27T05:03:17.873Z,77.40
2022-12-27T05:05:46.939Z,77.40
2022-12-27T05:08:32.399Z,77.40
2022-12-27T05:11:17.810Z,77.40
2022-12-27T05:14:02.654Z,77.40
2022-12-27T05:16:39.188Z,77.40
2022-12-27T05:19:06.729Z,77.40
2022-12-27T05:21:40.878Z,77.40
2022-12-27T05:24:26.135Z,77.40
2022-12-27T05:26:55.578Z,77.40
2022-12-27T05:29:24.629Z,77.40
2022-12-27T05:31:51.199Z,77.40
2022-12-27T05:34:17.861Z,77.40
2022-12-27T05:36:44.417Z,77.40
2022-12-27T05:39:11.001Z,77.40
2022-12-27T05:41:37.591Z,77.40
2022-12-27T05:44:07.339Z,77.40
2022-12-27T05:46:35.288Z,77.40
2022-12-27T05:49:01.865Z,77.40
2022-12-27T05:51:28.468Z,77.40
2022-12-27T05:53:55.049Z,77.40
2022-12-27T05:56:24.069Z,77.40
2022-12-27T05:58:52.649Z,77.40
2022-12-27T06:01:19.211Z,77.40
2022-12-27T06:03:46.121Z,77.40
2022-12-27T06:06:13.227Z,77.40
2022-12-27T06:08:39.846Z,77.40
2022-12-27T06:11:08.147Z,77.40
2022-12-27T06:13:35.470Z,77.40
2022-12-27T06:16:05.081Z,77.40
2022-12-27T06:18:32.823Z,77.40
2022-12-27T06:21:12.869Z,77.40
2022-12-27T06:23:44.983Z,77.40
2022-12-27T06:26:13.521Z,77.40
2022-12-27T06:28:40.127Z,77.40
2022-12-27T06:31:06.706Z,77.40
2022-12-27T06:33:33.346Z,77.40
2022-12-27T06:36:05.118Z,77.40
2022-12-27T06:38:31.679Z,77.40
2022-12-27T06:41:07.066Z,77.40
2022-12-27T06:43:33.972Z,77.40
2022-12-27T06:46:04.509Z,77.40
2022-12-27T06:48:33.549Z,77.40
2022-12-27T06:51:05.917Z,77.40
2022-12-27T06:53:33.033Z,77.40
2022-12-27T06:56:10.348Z,77.40
2022-12-27T06:58:36.982Z,77.40
2022-12-27T07:01:12.742Z,77.40
2022-12-27T07:03:39.804Z,77.40
2022-12-27T07:06:07.103Z,77.40
2022-12-27T07:08:36.889Z,77.40
2022-12-27T07:11:06.923Z,77.40
2022-12-27T07:13:34.868Z,77.40
2022-12-27T07:16:03.445Z,77.40
2022-12-27T07:18:30.110Z,77.40
2022-12-27T07:20:56.664Z,77.40
2022-12-27T07:23:23.290Z,77.40
2022-12-27T07:25:49.869Z,77.40
2022-12-27T07:28:18.632Z,77.40
2022-12-27T07:30:47.690Z,77.40
2022-12-27T07:33:14.327Z,77.40
2022-12-27T07:35:44.906Z,77.40
2022-12-27T07:38:14.302Z,77.40
2022-12-27T07:40:43.051Z,77.40
2022-12-27T07:43:09.626Z,77.40
2022-12-27T07:45:36.245Z,77.40
2022-12-27T07:48:02.934Z,77.40
2022-12-27T07:50:29.476Z,77.40
2022-12-27T07:52:56.072Z,77.40
2022-12-27T07:55:22.810Z,77.40
2022-12-27T07:57:49.375Z,77.40
2022-12-27T08:00:16.159Z,77.40
2022-12-27T08:02:43.511Z,77.40
2022-12-27T08:05:13.003Z,77.40
2022-12-27T08:07:40.150Z,77.40
2022-12-27T08:10:06.882Z,77.40
2022-12-27T08:12:33.785Z,77.40
2022-12-27T08:15:01.886Z,77.40
2022-12-27T08:17:28.646Z,77.40
2022-12-27T08:19:55.453Z,77.40
2022-12-27T08:22:22.776Z,77.40
2022-12-27T08:24:49.353Z,77.40
2022-12-27T08:27:26.201Z,77.40
2022-12-27T08:29:52.866Z,77.40
2022-12-27T08:32:21.547Z,77.40
2022-12-27T08:34:48.417Z,77.40
2022-12-27T08:37:15.844Z,77.40
2022-12-27T08:39:42.569Z,77.40
2022-12-27T08:42:11.636Z,77.40
2022-12-27T08:44:38.310Z,77.40
2022-12-27T08:47:05.656Z,77.40
2022-12-27T08:49:32.236Z,77.40
2022-12-27T08:51:58.861Z,77.40
2022-12-27T08:54:27.566Z,77.40
2022-12-27T08:56:54.156Z,77.40
2022-12-27T08:59:20.698Z,77.40
2022-12-27T09:01:47.319Z,77.40
2022-12-27T09:04:16.384Z,77.40
2022-12-27T09:06:45.372Z,77.40
2022-12-27T09:09:11.953Z,77.40
2022-12-27T09:11:38.524Z,77.40
2022-12-27T09:14:05.572Z,77.40
2022-12-27T09:16:34.035Z,77.40
2022-12-27T09:19:00.723Z,77.40
2022-12-27T09:21:28.803Z,77.40
2022-12-27T09:23:55.544Z,77.40
2022-12-27T09:26:23.739Z,77.40
2022-12-27T09:28:50.612Z,77.40
2022-12-27T09:31:17.911Z,77.40
2022-12-27T09:33:44.784Z,77.40
2022-12-27T09:36:12.624Z,77.40
2022-12-27T09:38:39.532Z,77.40
2022-12-27T09:41:19.358Z,77.40
2022-12-27T09:44:00.151Z,77.40
2022-12-27T09:46:36.886Z,77.40
2022-12-27T09:49:03.698Z,77.40
2022-12-27T09:51:36.002Z,77.40
2022-12-27T09:54:10.426Z,77.30
2022-12-27T09:57:17.788Z,77.30
2022-12-27T09:59:33.125Z,77.20
2022-12-27T10:01:59.841Z,77.30
2022-12-27T10:04:45.209Z,77.30
2022-12-27T10:07:29.903Z,77.30
2022-12-27T10:10:10.701Z,77.40
2022-12-27T10:12:46.513Z,77.30
2022-12-27T10:15:22.014Z,77.10
2022-12-27T10:17:57.091Z,77.20
2022-12-27T10:20:26.423Z,77.10
2022-12-27T10:22:54.505Z,77.00
2022-12-27T10:25:23.235Z,77.10
2022-12-27T10:27:53.534Z,77.20
2022-12-27T10:30:21.622Z,77.20
2022-12-27T10:32:48.856Z,77.10
2022-12-27T10:35:17.160Z,77.40
2022-12-27T10:37:44.875Z,77.40
2022-12-27T10:40:16.931Z,76.90
2022-12-27T10:43:06.570Z,76.60
2022-12-27T10:45:40.044Z,76.70
2022-12-27T10:48:14.220Z,76.60
2022-12-27T10:50:45.460Z,76.50
2022-12-27T10:53:26.347Z,75.80
2022-12-27T10:56:05.442Z,76.00
2022-12-27T10:58:31.943Z,75.70
2022-12-27T11:01:00.826Z,75.20
2022-12-27T11:03:28.473Z,75.40
2022-12-27T11:06:02.690Z,75.50
2022-12-27T11:08:29.816Z,75.50
2022-12-27T11:11:32.009Z,75.60
2022-12-27T11:14:10.479Z,75.40
2022-12-27T11:16:37.327Z,75.60
2022-12-27T11:19:04.041Z,75.80
2022-12-27T11:21:31.386Z,75.70
2022-12-27T11:24:01.798Z,75.80
2022-12-27T11:26:30.842Z,76.40
2022-12-27T11:29:02.025Z,75.50
2022-12-27T11:31:34.275Z,75.60
2022-12-27T11:34:03.376Z,75.10
2022-12-27T11:36:36.647Z,75.40
2022-12-27T11:39:06.577Z,75.90
2022-12-27T11:41:39.620Z,75.30
2022-12-27T11:44:09.215Z,75.50
2022-12-27T11:46:39.429Z,74.90
2022-12-27T11:49:08.466Z,74.80
2022-12-27T11:51:35.091Z,75.20
2022-12-27T11:54:29.857Z,75.50
2022-12-27T11:57:15.456Z,75.00
2022-12-27T11:59:47.267Z,75.50
2022-12-27T12:02:29.504Z,74.40
2022-12-27T12:05:14.429Z,74.70
2022-12-27T12:07:47.735Z,73.70
2022-12-27T12:10:33.226Z,74.30
2022-12-27T12:13:02.832Z,73.70
2022-12-27T12:15:45.087Z,73.90
2022-12-27T12:18:12.396Z,74.10
2022-12-27T12:20:39.034Z,73.20
2022-12-27T12:23:24.362Z,73.70
2022-12-27T12:26:08.167Z,72.50
2022-12-27T12:28:58.070Z,72.30
2022-12-27T12:31:45.453Z,73.40
2022-12-27T12:34:24.322Z,72.20
2022-12-27T12:37:06.211Z,72.00
2022-12-27T12:39:35.501Z,72.70
2022-12-27T12:42:13.740Z,71.70
2022-12-27T12:44:48.595Z,71.80
2022-12-27T12:47:20.856Z,72.20
2022-12-27T12:50:13.417Z,71.90
2022-12-27T12:52:59.215Z,72.20
2022-12-27T12:55:40.250Z,73.10
2022-12-27T12:58:23.126Z,73.30
2022-12-27T13:00:49.869Z,72.90
2022-12-27T13:03:39.219Z,73.30
2022-12-27T13:06:14.971Z,73.40
2022-12-27T13:08:49.786Z,73.90
2022-12-27T13:11:19.327Z,73.60
2022-12-27T13:13:49.025Z,72.90
2022-12-27T13:16:27.664Z,73.40
2022-12-27T13:19:14.472Z,73.50
2022-12-27T13:22:07.303Z,73.20
2022-12-27T13:24:33.857Z,73.60
2022-12-27T13:27:11.928Z,72.70
2022-12-27T13:29:49.113Z,73.70
2022-12-27T13:32:23.636Z,74.30
2022-12-27T13:34:50.130Z,73.30
2022-12-27T13:37:35.139Z,74.00
2022-12-27T13:40:03.982Z,73.90
2022-12-27T13:42:33.319Z,73.80
2022-12-27T13:45:18.286Z,72.90
2022-12-27T13:47:44.824Z,73.90
2022-12-27T13:50:20.639Z,73.80
2022-12-27T13:53:01.896Z,73.20
2022-12-27T13:55:47.233Z,73.20
2022-12-27T13:58:26.119Z,72.90
2022-12-27T14:01:01.189Z,73.70
2022-12-27T14:03:37.178Z,73.40
2022-12-27T14:06:07.577Z,72.90
2022-12-27T14:08:34.161Z,72.70
2022-12-27T14:11:01.538Z,73.30
2022-12-27T14:13:28.330Z,72.70
2022-12-27T14:16:04.140Z,73.00
2022-12-27T14:18:46.080Z,72.50
2022-12-27T14:21:12.635Z,72.60
2022-12-27T14:23:59.847Z,72.40
2022-12-27T14:26:38.369Z,71.70
2022-12-27T14:29:28.511Z,72.10
2022-12-27T14:32:12.551Z,72.70
2022-12-27T14:34:52.187Z,73.40
2022-12-27T14:37:27.346Z,72.70
2022-12-27T14:40:13.163Z,71.90
2022-12-27T14:42:58.510Z,72.60
2022-12-27T14:45:25.066Z,72.50
2022-12-27T14:48:04.720Z,72.00
2022-12-27T14:50:49.972Z,72.30
2022-12-27T14:53:19.657Z,71.90
2022-12-27T14:55:46.464Z,72.80
2022-12-27T14:58:13.136Z,73.00
2022-12-27T15:00:54.203Z,72.60
2022-12-27T15:03:34.598Z,72.80
2022-12-27T15:06:20.963Z,73.20
2022-12-27T15:09:11.062Z,72.80
2022-12-27T15:11:53.679Z,72.50
2022-12-27T15:14:23.440Z,72.80
2022-12-27T15:17:01.345Z,72.80
2022-12-27T15:19:27.879Z,73.50
2022-12-27T15:21:54.395Z,73.40
2022-12-27T15:24:28.023Z,72.60
2022-12-27T15:26:57.578Z,72.80
2022-12-27T15:29:32.304Z,73.10
2022-12-27T15:32:08.013Z,74.20
2022-12-27T15:34:34.756Z,73.30
2022-12-27T15:37:01.675Z,73.50
2022-12-27T15:39:36.816Z,73.40
2022-12-27T15:42:24.106Z,73.90
2022-12-27T15:44:50.751Z,74.20
2022-12-27T15:47:26.115Z,73.60
2022-12-27T15:50:11.455Z,73.80
2022-12-27T15:52:40.852Z,74.00
2022-12-27T15:55:26.581Z,74.80
2022-12-27T15:57:59.287Z,75.30
2022-12-27T16:00:32.451Z,74.90
2022-12-27T16:03:01.594Z,74.60
2022-12-27T16:05:40.325Z,74.40
2022-12-27T16:08:06.928Z,74.70
2022-12-27T16:10:47.967Z,74.90
2022-12-27T16:13:42.778Z,75.30
2022-12-27T16:16:32.595Z,75.60
2022-12-27T16:19:09.421Z,75.10
2022-12-27T16:21:37.761Z,75.00
2022-12-27T16:24:06.306Z,74.90
2022-12-27T16:26:36.553Z,74.60
2022-12-27T16:29:05.500Z,74.60
2022-12-27T16:31:33.896Z,75.30
2022-12-27T16:34:10.608Z,76.40
2022-12-27T16:36:43.073Z,75.60
2022-12-27T16:39:35.617Z,75.60
2022-12-27T16:42:03.820Z,75.30
2022-12-27T16:44:38.042Z,75.70
2022-12-27T16:47:37.455Z,76.20
2022-12-27T16:50:19.762Z,76.20
2022-12-27T16:52:49.624Z,76.30
2022-12-27T16:55:34.376Z,76.90
2022-12-27T16:58:19.593Z,76.40
2022-12-27T17:00:47.640Z,76.70
2022-12-27T17:03:35.493Z,76.40
2022-12-27T17:06:38.014Z,76.50
2022-12-27T17:09:10.867Z,76.80
2022-12-27T17:11:49.831Z,76.80
2022-12-27T17:14:16.403Z,77.10
2022-12-27T17:16:46.042Z,77.20
2022-12-27T17:19:19.082Z,76.90
2022-12-27T17:21:46.166Z,76.80
2022-12-27T17:24:16.651Z,77.00
2022-12-27T17:26:53.804Z,76.90
2022-12-27T17:29:35.908Z,77.10
2022-12-27T17:32:02.478Z,77.10
2022-12-27T17:34:32.251Z,77.10
2022-12-27T17:37:04.713Z,77.20
2022-12-27T17:39:31.332Z,77.20
2022-12-27T17:42:37.634Z,77.20
2022-12-27T17:45:23.185Z,77.30
2022-12-27T17:48:12.816Z,77.00
2022-12-27T17:50:42.336Z,77.20
2022-12-27T17:53:27.546Z,77.20
2022-12-27T17:56:20.755Z,77.20
2022-12-27T17:58:47.661Z,77.30
2022-12-27T18:01:14.577Z,77.20
2022-12-27T18:03:45.811Z,77.20
2022-12-27T18:06:12.621Z,77.30
2022-12-27T18:08:39.704Z,77.20
2022-12-27T18:11:10.996Z,77.30
2022-12-27T18:13:39.772Z,77.20
2022-12-27T18:16:18.140Z,77.20
2022-12-27T18:18:48.729Z,77.30
2022-12-27T18:21:27.886Z,77.40
2022-12-27T18:23:54.719Z,77.30
2022-12-27T18:26:24.155Z,77.30
2022-12-27T18:28:53.223Z,77.30
2022-12-27T18:31:19.982Z,77.30
2022-12-27T18:33:49.703Z,77.30
2022-12-27T18:36:39.195Z,77.30
2022-12-27T18:39:19.072Z,77.20
2022-12-27T18:41:51.942Z,77.20
2022-12-27T18:44:26.881Z,77.20
2022-12-27T18:46:59.029Z,77.30
2022-12-27T18:49:27.136Z,77.00
2022-12-27T18:51:55.021Z,76.80
2022-12-27T18:54:21.862Z,76.80
2022-12-27T18:56:51.243Z,76.70
2022-12-27T18:59:17.778Z,76.90
2022-12-27T19:01:45.616Z,77.30
2022-12-27T19:04:17.074Z,76.80
2022-12-27T19:06:49.166Z,77.00
2022-12-27T19:09:16.771Z,76.60
2022-12-27T19:11:56.392Z,76.20
2022-12-27T19:14:23.867Z,76.10
2022-12-27T19:16:52.607Z,76.40
2022-12-27T19:19:25.288Z,75.50
2022-12-27T19:21:54.335Z,76.00
2022-12-27T19:24:24.025Z,75.60
2022-12-27T19:26:51.117Z,75.40
2022-12-27T19:29:19.246Z,75.90
2022-12-27T19:31:56.937Z,75.60
2022-12-27T19:34:25.807Z,75.90
2022-12-27T19:36:54.015Z,76.30
2022-12-27T19:39:25.284Z,76.00
2022-12-27T19:41:52.427Z,76.10
2022-12-27T19:44:19.115Z,76.20
2022-12-27T19:46:48.258Z,76.50
2022-12-27T19:49:40.791Z,76.30
2022-12-27T19:52:01.741Z,76.40
2022-12-27T19:54:28.746Z,76.50
2022-12-27T19:56:57.716Z,76.30
2022-12-27T19:59:24.347Z,76.60
2022-12-27T20:01:54.559Z,76.30
2022-12-27T20:04:24.186Z,76.40
2022-12-27T20:06:51.775Z,76.30
2022-12-27T20:09:19.360Z,76.30
2022-12-27T20:11:50.755Z,76.60
2022-12-27T20:14:17.943Z,76.20
2022-12-27T20:16:45.793Z,76.20
2022-12-27T20:19:16.194Z,76.40
2022-12-27T20:21:42.778Z,76.50
2022-12-27T20:24:12.439Z,76.50
2022-12-27T20:26:39.434Z,76.20
2022-12-27T20:29:08.678Z,76.80
2022-12-27T20:31:42.230Z,76.40
2022-12-27T20:34:16.935Z,76.70
2022-12-27T20:36:44.707Z,77.00
2022-12-27T20:39:11.374Z,77.20
2022-12-27T20:41:38.056Z,77.30
2022-12-27T20:44:06.827Z,77.20
2022-12-27T20:46:33.505Z,77.30
2022-12-27T20:49:00.616Z,77.40
2022-12-27T20:51:28.365Z,77.40
2022-12-27T20:53:56.075Z,77.40
2022-12-27T20:56:22.898Z,77.40
2022-12-27T20:58:49.640Z,77.40
2022-12-27T21:01:17.855Z,77.40
2022-12-27T21:03:44.894Z,77.40
2022-12-27T21:06:12.872Z,77.40
2022-12-27T21:08:46.594Z,77.40
2022-12-27T21:11:19.111Z,77.40
2022-12-27T21:13:48.839Z,77.40
2022-12-27T21:16:19.590Z,77.40
2022-12-27T21:18:47.949Z,77.40
2022-12-27T21:21:19.587Z,77.40
2022-12-27T21:23:47.282Z,77.40
2022-12-27T21:26:15.374Z,77.40
2022-12-27T21:28:44.548Z,77.40
2022-12-27T21:31:14.502Z,77.40
2022-12-27T21:33:43.431Z,77.40
2022-12-27T21:36:14.502Z,77.40
2022-12-27T21:38:43.432Z,77.40
2022-12-27T21:41:14.439Z,77.40
2022-12-27T21:43:41.450Z,77.40
2022-12-27T21:46:15.389Z,77.40
2022-12-27T21:48:42.266Z,77.40
2022-12-27T21:51:13.280Z,77.40
2022-12-27T21:53:40.559Z,77.40
2022-12-27T21:56:07.646Z,77.40
2022-12-27T21:58:35.601Z,77.40
2022-12-27T22:01:08.576Z,77.40
2022-12-27T22:03:37.177Z,77.40
2022-12-27T22:06:15.985Z,77.40
2022-12-27T22:08:43.415Z,77.40
2022-12-27T22:11:10.279Z,77.40
2022-12-27T22:13:37.286Z,77.40
2022-12-27T22:16:05.156Z,77.40
2022-12-27T22:18:32.589Z,77.40
2022-12-27T22:21:01.053Z,77.40
2022-12-27T22:23:34.523Z,77.40
2022-12-27T22:26:07.168Z,77.40
2022-12-27T22:28:35.958Z,77.40
2022-12-27T22:31:06.835Z,77.40
2022-12-27T22:33:34.502Z,77.40
2022-12-27T22:36:08.585Z,77.40
2022-12-27T22:38:36.807Z,77.40
2022-12-27T22:41:07.793Z,77.40
2022-12-27T22:43:34.768Z,77.40
2022-12-27T22:46:05.206Z,77.40
2022-12-27T22:48:31.931Z,77.40
2022-12-27T22:50:58.513Z,77.40
2022-12-27T22:53:27.522Z,77.40
2022-12-27T22:55:54.058Z,77.40
2022-12-27T22:58:20.635Z,77.40
2022-12-27T23:00:47.297Z,77.40
2022-12-27T23:03:14.207Z,77.40
2022-12-27T23:05:40.753Z,77.40
2022-12-27T23:08:09.846Z,77.40
2022-12-27T23:10:36.439Z,77.40
2022-12-27T23:13:05.191Z,77.40
2022-12-27T23:15:31.788Z,77.40
2022-12-27T23:17:59.006Z,77.40
2022-12-27T23:20:25.633Z,77.40
2022-12-27T23:22:52.301Z,77.40
2022-12-27T23:25:18.985Z,77.40
2022-12-27T23:27:45.629Z,77.40
2022-12-27T23:30:14.586Z,77.40
2022-12-27T23:32:41.185Z,77.40
2022-12-27T23:35:07.940Z,77.40
2022-12-27T23:37:36.725Z,77.40
2022-12-27T23:40:03.592Z,77.40
2022-12-27T23:42:30.123Z,77.40
2022-12-27T23:44:56.645Z,77.40
2022-12-27T23:47:23.527Z,77.40
2022-12-27T23:49:50.041Z,77.40
2022-12-27T23:52:16.645Z,77.40
2022-12-27T23:54:43.287Z,77.40
2022-12-27T23:57:20.208Z,77.40
2022-12-27T23:59:51.908Z,77.40
